YMAV/AVV METAR and TAF weather

Enter ICAO airport designator
Station Type Date Time Source
YMAV METAR 2019/06/26 05:30 UTC NOAA

YMAV 260530Z AUTO 10007KT 9999 // NCD 14/09 Q1032 RF00.0/000.0 PRESENT WEATHER SENSOR US


Station Type Date Time Source
YMAV Decoded METAR 2019/06/26 05:30 UTC NOAA

Avalon, Avalon Airport, Australia (YMAV) 38-02S 144-29E
Jun 26, 2019 - 01:30 AM EDT / 2019.06.26 0530 UTC
Wind: from the E (100 degrees) at 8 MPH (7 KT):0
Visibility: greater than 7 mile(s):0
Temperature: 57 F (14 C)
Dew Point: 48 F (9 C)
Relative Humidity: 71%
Pressure (altimeter): 30.47 in. Hg (1032 hPa)
ob: YMAV 260530Z AUTO 10007KT 9999 // NCD 14/09 Q1032 RF00.0/000.0 PRESENT WEATHER SENSOR US
cycle: 5

Station Type Date Time Source
YMAV TAF 2019/06/26 06:39 UTC NOAA

TAF
AMD YMAV 260538Z 2606/2706 08008KT CAVOK
FM260800 01008KT CAVOK
FM270100 01015G25KT CAVOK

Example: see airport list